sensor_id;sensor_type;location;lat;lon;timestamp;P1;durP1;ratioP1;P2;durP2;ratioP2
77109;SDS011;66062;52.464;16.922;2023-03-01T00:02:06;75.60;;;33.55;;
77109;SDS011;66062;52.464;16.922;2023-03-01T00:04:31;85.43;;;33.95;;
77109;SDS011;66062;52.464;16.922;2023-03-01T00:06:57;85.70;;;32.60;;
77109;SDS011;66062;52.464;16.922;2023-03-01T00:09:22;93.07;;;35.42;;
77109;SDS011;66062;52.464;16.922;2023-03-01T00:11:48;94.20;;;38.70;;
77109;SDS011;66062;52.464;16.922;2023-03-01T00:14:14;93.22;;;34.58;;
77109;SDS011;66062;52.464;16.922;2023-03-01T00:16:42;88.28;;;33.38;;
77109;SDS011;66062;52.464;16.922;2023-03-01T00:19:11;86.95;;;33.08;;
77109;SDS011;66062;52.464;16.922;2023-03-01T00:21:41;88.22;;;33.30;;
77109;SDS011;66062;52.464;16.922;2023-03-01T00:24:07;94.22;;;35.72;;
77109;SDS011;66062;52.464;16.922;2023-03-01T00:26:33;96.72;;;35.72;;
77109;SDS011;66062;52.464;16.922;2023-03-01T00:28:59;90.43;;;36.08;;
77109;SDS011;66062;52.464;16.922;2023-03-01T00:31:26;83.90;;;34.67;;
77109;SDS011;66062;52.464;16.922;2023-03-01T00:33:58;88.32;;;33.95;;
77109;SDS011;66062;52.464;16.922;2023-03-01T00:36:29;95.18;;;35.22;;
77109;SDS011;66062;52.464;16.922;2023-03-01T00:38:56;100.40;;;36.20;;
77109;SDS011;66062;52.464;16.922;2023-03-01T00:41:21;95.07;;;40.65;;
77109;SDS011;66062;52.464;16.922;2023-03-01T00:43:48;110.65;;;42.95;;
77109;SDS011;66062;52.464;16.922;2023-03-01T00:46:16;112.93;;;40.97;;
77109;SDS011;66062;52.464;16.922;2023-03-01T00:48:43;106.30;;;41.10;;
77109;SDS011;66062;52.464;16.922;2023-03-01T00:53:39;102.93;;;39.40;;
77109;SDS011;66062;52.464;16.922;2023-03-01T00:56:06;111.10;;;40.05;;
77109;SDS011;66062;52.464;16.922;2023-03-01T00:58:33;100.38;;;39.33;;
77109;SDS011;66062;52.464;16.922;2023-03-01T01:00:59;107.63;;;43.60;;
77109;SDS011;66062;52.464;16.922;2023-03-01T01:03:25;109.28;;;42.38;;
77109;SDS011;66062;52.464;16.922;2023-03-01T01:05:51;111.40;;;42.05;;
77109;SDS011;66062;52.464;16.922;2023-03-01T01:08:18;108.18;;;41.83;;
77109;SDS011;66062;52.464;16.922;2023-03-01T01:10:45;112.80;;;40.83;;
77109;SDS011;66062;52.464;16.922;2023-03-01T01:13:11;115.60;;;45.55;;
77109;SDS011;66062;52.464;16.922;2023-03-01T01:15:37;118.25;;;42.17;;
77109;SDS011;66062;52.464;16.922;2023-03-01T01:18:02;110.57;;;40.72;;
77109;SDS011;66062;52.464;16.922;2023-03-01T01:20:28;109.15;;;39.97;;
77109;SDS011;66062;52.464;16.922;2023-03-01T01:22:53;110.47;;;40.50;;
77109;SDS011;66062;52.464;16.922;2023-03-01T01:25:19;116.93;;;41.28;;
77109;SDS011;66062;52.464;16.922;2023-03-01T01:27:44;126.47;;;47.88;;
77109;SDS011;66062;52.464;16.922;2023-03-01T01:30:10;280.63;;;106.72;;
77109;SDS011;66062;52.464;16.922;2023-03-01T01:32:36;119.18;;;45.55;;
77109;SDS011;66062;52.464;16.922;2023-03-01T01:35:01;109.60;;;42.38;;
77109;SDS011;66062;52.464;16.922;2023-03-01T01:37:27;112.53;;;42.78;;
77109;SDS011;66062;52.464;16.922;2023-03-01T01:39:58;108.00;;;40.47;;
77109;SDS011;66062;52.464;16.922;2023-03-01T01:42:25;113.50;;;40.70;;
77109;SDS011;66062;52.464;16.922;2023-03-01T01:50:17;102.82;;;34.78;;
77109;SDS011;66062;52.464;16.922;2023-03-01T01:52:43;107.32;;;39.05;;
77109;SDS011;66062;52.464;16.922;2023-03-01T01:55:12;108.15;;;37.97;;
77109;SDS011;66062;52.464;16.922;2023-03-01T01:57:48;98.05;;;34.63;;
77109;SDS011;66062;52.464;16.922;2023-03-01T02:00:21;96.00;;;37.17;;
77109;SDS011;66062;52.464;16.922;2023-03-01T02:02:49;86.68;;;36.30;;
77109;SDS011;66062;52.464;16.922;2023-03-01T02:08:25;91.38;;;33.13;;
77109;SDS011;66062;52.464;16.922;2023-03-01T02:10:53;79.07;;;28.80;;
77109;SDS011;66062;52.464;16.922;2023-03-01T02:13:21;88.07;;;32.25;;
77109;SDS011;66062;52.464;16.922;2023-03-01T02:15:46;83.57;;;32.50;;
77109;SDS011;66062;52.464;16.922;2023-03-01T02:18:13;83.35;;;30.08;;
77109;SDS011;66062;52.464;16.922;2023-03-01T02:23:33;76.38;;;28.85;;
77109;SDS011;66062;52.464;16.922;2023-03-01T02:26:05;69.00;;;29.77;;
77109;SDS011;66062;52.464;16.922;2023-03-01T02:28:38;73.82;;;28.95;;
77109;SDS011;66062;52.464;16.922;2023-03-01T02:31:08;75.70;;;27.98;;
77109;SDS011;66062;52.464;16.922;2023-03-01T02:33:54;69.75;;;26.90;;
77109;SDS011;66062;52.464;16.922;2023-03-01T02:36:21;74.38;;;28.60;;
77109;SDS011;66062;52.464;16.922;2023-03-01T02:38:51;78.65;;;30.30;;
77109;SDS011;66062;52.464;16.922;2023-03-01T02:41:19;69.30;;;26.92;;
77109;SDS011;66062;52.464;16.922;2023-03-01T02:43:46;74.57;;;30.27;;
77109;SDS011;66062;52.464;16.922;2023-03-01T02:46:16;81.55;;;30.65;;
77109;SDS011;66062;52.464;16.922;2023-03-01T02:48:50;87.43;;;33.08;;
77109;SDS011;66062;52.464;16.922;2023-03-01T02:54:49;79.05;;;30.55;;
77109;SDS011;66062;52.464;16.922;2023-03-01T02:57:06;78.82;;;28.83;;
77109;SDS011;66062;52.464;16.922;2023-03-01T02:59:34;79.13;;;30.45;;
77109;SDS011;66062;52.464;16.922;2023-03-01T03:02:04;78.35;;;27.73;;
77109;SDS011;66062;52.464;16.922;2023-03-01T03:04:30;98.38;;;33.42;;
77109;SDS011;66062;52.464;16.922;2023-03-01T03:06:56;87.22;;;31.35;;
77109;SDS011;66062;52.464;16.922;2023-03-01T03:09:22;76.53;;;29.30;;
77109;SDS011;66062;52.464;16.922;2023-03-01T03:11:47;86.50;;;31.48;;
77109;SDS011;66062;52.464;16.922;2023-03-01T03:14:14;89.68;;;31.30;;
77109;SDS011;66062;52.464;16.922;2023-03-01T03:16:41;88.30;;;32.10;;
77109;SDS011;66062;52.464;16.922;2023-03-01T03:19:12;79.80;;;30.25;;
77109;SDS011;66062;52.464;16.922;2023-03-01T03:21:38;72.93;;;28.45;;
77109;SDS011;66062;52.464;16.922;2023-03-01T03:24:04;76.63;;;28.55;;
77109;SDS011;66062;52.464;16.922;2023-03-01T03:26:30;75.43;;;30.13;;
77109;SDS011;66062;52.464;16.922;2023-03-01T03:28:56;79.28;;;29.70;;
77109;SDS011;66062;52.464;16.922;2023-03-01T03:31:22;83.43;;;30.85;;
77109;SDS011;66062;52.464;16.922;2023-03-01T03:33:47;82.35;;;30.75;;
77109;SDS011;66062;52.464;16.922;2023-03-01T03:36:16;85.93;;;29.45;;
77109;SDS011;66062;52.464;16.922;2023-03-01T03:38:43;79.60;;;29.10;;
77109;SDS011;66062;52.464;16.922;2023-03-01T03:41:11;86.32;;;32.40;;
77109;SDS011;66062;52.464;16.922;2023-03-01T03:43:37;76.07;;;28.50;;
77109;SDS011;66062;52.464;16.922;2023-03-01T03:46:04;77.18;;;29.95;;
77109;SDS011;66062;52.464;16.922;2023-03-01T03:48:31;76.25;;;30.67;;
77109;SDS011;66062;52.464;16.922;2023-03-01T03:50:58;77.88;;;30.85;;
77109;SDS011;66062;52.464;16.922;2023-03-01T03:53:25;78.93;;;28.63;;
77109;SDS011;66062;52.464;16.922;2023-03-01T03:55:51;84.15;;;31.45;;
77109;SDS011;66062;52.464;16.922;2023-03-01T03:58:18;85.35;;;34.35;;
77109;SDS011;66062;52.464;16.922;2023-03-01T04:00:45;71.40;;;28.27;;
77109;SDS011;66062;52.464;16.922;2023-03-01T04:03:13;88.10;;;30.48;;
77109;SDS011;66062;52.464;16.922;2023-03-01T04:05:40;72.18;;;28.10;;
77109;SDS011;66062;52.464;16.922;2023-03-01T04:08:06;77.30;;;31.50;;
77109;SDS011;66062;52.464;16.922;2023-03-01T04:10:39;73.97;;;30.05;;
77109;SDS011;66062;52.464;16.922;2023-03-01T04:13:09;74.30;;;28.77;;
77109;SDS011;66062;52.464;16.922;2023-03-01T04:15:37;70.30;;;27.27;;
77109;SDS011;66062;52.464;16.922;2023-03-01T04:18:03;74.70;;;30.00;;
77109;SDS011;66062;52.464;16.922;2023-03-01T04:20:29;79.97;;;31.45;;
77109;SDS011;66062;52.464;16.922;2023-03-01T04:22:59;79.10;;;31.38;;
77109;SDS011;66062;52.464;16.922;2023-03-01T04:28:07;74.38;;;28.30;;
77109;SDS011;66062;52.464;16.922;2023-03-01T04:30:34;80.72;;;29.63;;
77109;SDS011;66062;52.464;16.922;2023-03-01T04:33:05;75.20;;;27.02;;
77109;SDS011;66062;52.464;16.922;2023-03-01T04:35:32;79.93;;;29.17;;
77109;SDS011;66062;52.464;16.922;2023-03-01T04:37:59;76.65;;;31.52;;
77109;SDS011;66062;52.464;16.922;2023-03-01T04:40:27;74.72;;;29.77;;
77109;SDS011;66062;52.464;16.922;2023-03-01T04:42:53;121.20;;;46.83;;
77109;SDS011;66062;52.464;16.922;2023-03-01T04:45:19;80.43;;;31.67;;
77109;SDS011;66062;52.464;16.922;2023-03-01T04:47:45;77.88;;;29.17;;
77109;SDS011;66062;52.464;16.922;2023-03-01T04:50:12;75.43;;;29.75;;
77109;SDS011;66062;52.464;16.922;2023-03-01T04:52:42;82.32;;;28.17;;
77109;SDS011;66062;52.464;16.922;2023-03-01T04:55:08;73.50;;;30.00;;
77109;SDS011;66062;52.464;16.922;2023-03-01T04:57:34;72.18;;;27.55;;
77109;SDS011;66062;52.464;16.922;2023-03-01T05:00:00;82.20;;;30.02;;
77109;SDS011;66062;52.464;16.922;2023-03-01T05:02:25;82.28;;;30.02;;
77109;SDS011;66062;52.464;16.922;2023-03-01T05:04:51;76.50;;;31.20;;
77109;SDS011;66062;52.464;16.922;2023-03-01T05:07:16;78.78;;;29.58;;
77109;SDS011;66062;52.464;16.922;2023-03-01T05:09:47;71.28;;;29.27;;
77109;SDS011;66062;52.464;16.922;2023-03-01T05:12:14;68.40;;;26.98;;
77109;SDS011;66062;52.464;16.922;2023-03-01T05:14:40;71.68;;;29.33;;
77109;SDS011;66062;52.464;16.922;2023-03-01T05:17:05;78.68;;;30.67;;
77109;SDS011;66062;52.464;16.922;2023-03-01T05:19:31;75.15;;;31.67;;
77109;SDS011;66062;52.464;16.922;2023-03-01T05:21:57;75.95;;;27.90;;
77109;SDS011;66062;52.464;16.922;2023-03-01T05:24:30;64.82;;;26.90;;
77109;SDS011;66062;52.464;16.922;2023-03-01T05:26:58;67.43;;;28.27;;
77109;SDS011;66062;52.464;16.922;2023-03-01T05:29:24;78.00;;;28.83;;
77109;SDS011;66062;52.464;16.922;2023-03-01T05:31:55;73.97;;;29.95;;
77109;SDS011;66062;52.464;16.922;2023-03-01T05:34:26;66.30;;;27.33;;
77109;SDS011;66062;52.464;16.922;2023-03-01T05:36:54;83.22;;;30.33;;
77109;SDS011;66062;52.464;16.922;2023-03-01T05:39:23;73.00;;;33.40;;
77109;SDS011;66062;52.464;16.922;2023-03-01T05:41:58;81.15;;;30.27;;
77109;SDS011;66062;52.464;16.922;2023-03-01T05:44:25;80.63;;;30.83;;
77109;SDS011;66062;52.464;16.922;2023-03-01T05:46:51;71.18;;;28.80;;
77109;SDS011;66062;52.464;16.922;2023-03-01T05:49:16;70.80;;;29.20;;
77109;SDS011;66062;52.464;16.922;2023-03-01T05:51:43;74.93;;;29.80;;
77109;SDS011;66062;52.464;16.922;2023-03-01T05:54:12;84.38;;;29.45;;
77109;SDS011;66062;52.464;16.922;2023-03-01T05:56:38;72.30;;;29.77;;
77109;SDS011;66062;52.464;16.922;2023-03-01T05:59:03;68.80;;;28.88;;
77109;SDS011;66062;52.464;16.922;2023-03-01T06:01:32;75.85;;;29.38;;
77109;SDS011;66062;52.464;16.922;2023-03-01T06:03:58;68.70;;;26.67;;
77109;SDS011;66062;52.464;16.922;2023-03-01T06:06:24;81.85;;;35.97;;
77109;SDS011;66062;52.464;16.922;2023-03-01T06:08:50;88.82;;;32.65;;
77109;SDS011;66062;52.464;16.922;2023-03-01T06:11:16;81.47;;;32.47;;
77109;SDS011;66062;52.464;16.922;2023-03-01T06:13:45;82.10;;;31.13;;
77109;SDS011;66062;52.464;16.922;2023-03-01T06:16:11;87.43;;;32.15;;
77109;SDS011;66062;52.464;16.922;2023-03-01T06:18:37;92.50;;;35.42;;
77109;SDS011;66062;52.464;16.922;2023-03-01T06:21:03;81.40;;;31.02;;
77109;SDS011;66062;52.464;16.922;2023-03-01T06:23:29;93.18;;;32.92;;
77109;SDS011;66062;52.464;16.922;2023-03-01T06:25:54;73.05;;;33.13;;
77109;SDS011;66062;52.464;16.922;2023-03-01T06:28:20;82.45;;;28.88;;
77109;SDS011;66062;52.464;16.922;2023-03-01T06:30:46;64.45;;;26.35;;
77109;SDS011;66062;52.464;16.922;2023-03-01T06:33:11;85.63;;;28.95;;
77109;SDS011;66062;52.464;16.922;2023-03-01T06:35:37;71.85;;;28.20;;
77109;SDS011;66062;52.464;16.922;2023-03-01T06:38:03;69.13;;;27.05;;
77109;SDS011;66062;52.464;16.922;2023-03-01T06:40:30;74.72;;;26.05;;
77109;SDS011;66062;52.464;16.922;2023-03-01T06:42:56;64.18;;;27.08;;
77109;SDS011;66062;52.464;16.922;2023-03-01T06:45:22;65.93;;;24.55;;
77109;SDS011;66062;52.464;16.922;2023-03-01T06:47:48;60.45;;;24.35;;
77109;SDS011;66062;52.464;16.922;2023-03-01T06:50:14;72.50;;;27.15;;
77109;SDS011;66062;52.464;16.922;2023-03-01T06:52:40;69.90;;;26.05;;
77109;SDS011;66062;52.464;16.922;2023-03-01T06:55:06;76.38;;;24.83;;
77109;SDS011;66062;52.464;16.922;2023-03-01T06:57:31;64.18;;;25.60;;
77109;SDS011;66062;52.464;16.922;2023-03-01T06:59:57;68.65;;;26.35;;
77109;SDS011;66062;52.464;16.922;2023-03-01T07:02:22;63.80;;;26.15;;
77109;SDS011;66062;52.464;16.922;2023-03-01T07:04:48;68.85;;;27.98;;
77109;SDS011;66062;52.464;16.922;2023-03-01T07:07:14;71.55;;;25.23;;
77109;SDS011;66062;52.464;16.922;2023-03-01T07:09:40;53.75;;;23.98;;
77109;SDS011;66062;52.464;16.922;2023-03-01T07:12:05;67.45;;;26.33;;
77109;SDS011;66062;52.464;16.922;2023-03-01T07:14:31;78.88;;;28.95;;
77109;SDS011;66062;52.464;16.922;2023-03-01T07:16:56;69.20;;;28.25;;
77109;SDS011;66062;52.464;16.922;2023-03-01T07:19:22;65.88;;;26.88;;
77109;SDS011;66062;52.464;16.922;2023-03-01T07:21:48;77.03;;;32.33;;
77109;SDS011;66062;52.464;16.922;2023-03-01T07:24:13;74.07;;;27.40;;
77109;SDS011;66062;52.464;16.922;2023-03-01T07:26:38;71.22;;;29.25;;
77109;SDS011;66062;52.464;16.922;2023-03-01T07:29:04;68.28;;;26.85;;
77109;SDS011;66062;52.464;16.922;2023-03-01T07:31:31;71.07;;;29.00;;
77109;SDS011;66062;52.464;16.922;2023-03-01T07:33:57;63.05;;;29.17;;
77109;SDS011;66062;52.464;16.922;2023-03-01T07:36:22;55.33;;;20.83;;
77109;SDS011;66062;52.464;16.922;2023-03-01T07:38:49;42.97;;;18.45;;
77109;SDS011;66062;52.464;16.922;2023-03-01T07:41:15;49.33;;;21.08;;
77109;SDS011;66062;52.464;16.922;2023-03-01T07:43:40;66.53;;;31.42;;
77109;SDS011;66062;52.464;16.922;2023-03-01T07:46:06;45.38;;;23.15;;
77109;SDS011;66062;52.464;16.922;2023-03-01T07:48:32;39.35;;;17.70;;
77109;SDS011;66062;52.464;16.922;2023-03-01T07:51:01;43.45;;;21.55;;
77109;SDS011;66062;52.464;16.922;2023-03-01T07:53:28;38.28;;;18.55;;
77109;SDS011;66062;52.464;16.922;2023-03-01T07:56:05;35.03;;;17.15;;
77109;SDS011;66062;52.464;16.922;2023-03-01T07:58:36;38.63;;;18.42;;
77109;SDS011;66062;52.464;16.922;2023-03-01T08:01:03;30.65;;;15.07;;
77109;SDS011;66062;52.464;16.922;2023-03-01T08:03:30;28.42;;;13.98;;
77109;SDS011;66062;52.464;16.922;2023-03-01T08:05:58;23.88;;;12.07;;
77109;SDS011;66062;52.464;16.922;2023-03-01T08:08:24;23.45;;;10.70;;
77109;SDS011;66062;52.464;16.922;2023-03-01T08:10:50;18.63;;;10.38;;
77109;SDS011;66062;52.464;16.922;2023-03-01T08:13:16;25.83;;;13.60;;
77109;SDS011;66062;52.464;16.922;2023-03-01T08:15:41;24.77;;;11.07;;
77109;SDS011;66062;52.464;16.922;2023-03-01T08:18:06;22.05;;;11.05;;
77109;SDS011;66062;52.464;16.922;2023-03-01T08:20:32;21.95;;;10.95;;
77109;SDS011;66062;52.464;16.922;2023-03-01T08:22:57;20.25;;;11.20;;
77109;SDS011;66062;52.464;16.922;2023-03-01T08:25:23;21.83;;;10.80;;
77109;SDS011;66062;52.464;16.922;2023-03-01T08:27:48;19.35;;;9.93;;
77109;SDS011;66062;52.464;16.922;2023-03-01T08:30:13;18.70;;;8.70;;
77109;SDS011;66062;52.464;16.922;2023-03-01T08:32:40;17.95;;;8.93;;
77109;SDS011;66062;52.464;16.922;2023-03-01T08:35:05;17.65;;;8.18;;
77109;SDS011;66062;52.464;16.922;2023-03-01T08:37:31;13.07;;;7.57;;
77109;SDS011;66062;52.464;16.922;2023-03-01T08:39:58;16.33;;;8.75;;
77109;SDS011;66062;52.464;16.922;2023-03-01T08:42:24;17.20;;;8.60;;
77109;SDS011;66062;52.464;16.922;2023-03-01T08:44:49;16.77;;;7.90;;
77109;SDS011;66062;52.464;16.922;2023-03-01T08:47:14;81.28;;;46.40;;
77109;SDS011;66062;52.464;16.922;2023-03-01T08:49:40;18.05;;;8.68;;
77109;SDS011;66062;52.464;16.922;2023-03-01T08:52:05;18.73;;;9.05;;
77109;SDS011;66062;52.464;16.922;2023-03-01T08:54:31;17.50;;;9.10;;
77109;SDS011;66062;52.464;16.922;2023-03-01T08:56:56;21.20;;;10.90;;
77109;SDS011;66062;52.464;16.922;2023-03-01T08:59:24;21.98;;;10.40;;
77109;SDS011;66062;52.464;16.922;2023-03-01T09:01:50;26.63;;;11.75;;
77109;SDS011;66062;52.464;16.922;2023-03-01T09:04:15;22.30;;;10.32;;
77109;SDS011;66062;52.464;16.922;2023-03-01T09:06:41;23.30;;;12.25;;
77109;SDS011;66062;52.464;16.922;2023-03-01T09:09:10;21.80;;;11.00;;
77109;SDS011;66062;52.464;16.922;2023-03-01T09:11:40;21.52;;;12.88;;
77109;SDS011;66062;52.464;16.922;2023-03-01T09:14:05;22.10;;;11.77;;
77109;SDS011;66062;52.464;16.922;2023-03-01T09:16:31;57.15;;;34.25;;
77109;SDS011;66062;52.464;16.922;2023-03-01T09:19:00;17.77;;;9.48;;
77109;SDS011;66062;52.464;16.922;2023-03-01T09:21:26;20.17;;;8.80;;
77109;SDS011;66062;52.464;16.922;2023-03-01T09:23:51;14.20;;;8.55;;
77109;SDS011;66062;52.464;16.922;2023-03-01T09:26:19;14.55;;;7.20;;
77109;SDS011;66062;52.464;16.922;2023-03-01T09:28:47;16.48;;;8.52;;
77109;SDS011;66062;52.464;16.922;2023-03-01T09:31:14;17.42;;;8.13;;
77109;SDS011;66062;52.464;16.922;2023-03-01T09:33:41;15.77;;;7.85;;
77109;SDS011;66062;52.464;16.922;2023-03-01T09:36:09;17.35;;;7.47;;
77109;SDS011;66062;52.464;16.922;2023-03-01T09:38:37;12.90;;;7.30;;
77109;SDS011;66062;52.464;16.922;2023-03-01T09:41:08;15.52;;;8.35;;
77109;SDS011;66062;52.464;16.922;2023-03-01T09:43:52;16.85;;;7.63;;
77109;SDS011;66062;52.464;16.922;2023-03-01T09:46:23;26.00;;;14.85;;
77109;SDS011;66062;52.464;16.922;2023-03-01T09:48:51;17.45;;;8.02;;
77109;SDS011;66062;52.464;16.922;2023-03-01T09:51:27;16.23;;;7.43;;
77109;SDS011;66062;52.464;16.922;2023-03-01T09:53:56;12.98;;;6.72;;
77109;SDS011;66062;52.464;16.922;2023-03-01T09:59:40;20.42;;;7.40;;
77109;SDS011;66062;52.464;16.922;2023-03-01T10:09:38;13.95;;;7.10;;
77109;SDS011;66062;52.464;16.922;2023-03-01T10:12:10;15.43;;;7.22;;
77109;SDS011;66062;52.464;16.922;2023-03-01T10:14:49;16.15;;;7.85;;
77109;SDS011;66062;52.464;16.922;2023-03-01T10:19:52;15.43;;;7.00;;
77109;SDS011;66062;52.464;16.922;2023-03-01T10:22:28;12.75;;;7.40;;
77109;SDS011;66062;52.464;16.922;2023-03-01T10:24:56;14.27;;;6.68;;
77109;SDS011;66062;52.464;16.922;2023-03-01T10:32:17;15.75;;;7.60;;
77109;SDS011;66062;52.464;16.922;2023-03-01T10:34:43;13.43;;;6.63;;
77109;SDS011;66062;52.464;16.922;2023-03-01T10:37:13;14.93;;;9.00;;
77109;SDS011;66062;52.464;16.922;2023-03-01T10:42:45;14.98;;;7.15;;
77109;SDS011;66062;52.464;16.922;2023-03-01T10:45:32;14.00;;;6.70;;
77109;SDS011;66062;52.464;16.922;2023-03-01T10:50:49;11.45;;;6.07;;
77109;SDS011;66062;52.464;16.922;2023-03-01T10:56:11;9.10;;;5.00;;
77109;SDS011;66062;52.464;16.922;2023-03-01T10:58:39;11.63;;;5.90;;
77109;SDS011;66062;52.464;16.922;2023-03-01T11:01:28;8.70;;;4.35;;
77109;SDS011;66062;52.464;16.922;2023-03-01T11:04:03;9.32;;;4.35;;
77109;SDS011;66062;52.464;16.922;2023-03-01T11:06:37;9.48;;;4.25;;
77109;SDS011;66062;52.464;16.922;2023-03-01T11:09:25;7.30;;;3.50;;
77109;SDS011;66062;52.464;16.922;2023-03-01T11:11:53;6.72;;;3.05;;
77109;SDS011;66062;52.464;16.922;2023-03-01T11:14:21;8.98;;;3.55;;
77109;SDS011;66062;52.464;16.922;2023-03-01T11:16:49;7.40;;;3.80;;
77109;SDS011;66062;52.464;16.922;2023-03-01T11:19:24;9.55;;;5.63;;
77109;SDS011;66062;52.464;16.922;2023-03-01T11:22:03;9.10;;;4.00;;
77109;SDS011;66062;52.464;16.922;2023-03-01T11:24:42;8.63;;;4.13;;
77109;SDS011;66062;52.464;16.922;2023-03-01T11:29:55;9.27;;;4.05;;
77109;SDS011;66062;52.464;16.922;2023-03-01T11:32:24;9.73;;;4.45;;
77109;SDS011;66062;52.464;16.922;2023-03-01T11:34:54;8.02;;;3.60;;
77109;SDS011;66062;52.464;16.922;2023-03-01T11:37:35;9.60;;;5.38;;
77109;SDS011;66062;52.464;16.922;2023-03-01T11:40:32;10.43;;;5.00;;
77109;SDS011;66062;52.464;16.922;2023-03-01T11:50:48;36.13;;;21.08;;
77109;SDS011;66062;52.464;16.922;2023-03-01T12:06:57;12.23;;;5.47;;
77109;SDS011;66062;52.464;16.922;2023-03-01T12:25:29;9.85;;;5.43;;
77109;SDS011;66062;52.464;16.922;2023-03-01T12:31:04;10.15;;;4.93;;
77109;SDS011;66062;52.464;16.922;2023-03-01T12:49:52;9.18;;;4.95;;
77109;SDS011;66062;52.464;16.922;2023-03-01T12:52:23;18.60;;;11.25;;
77109;SDS011;66062;52.464;16.922;2023-03-01T12:54:57;20.88;;;13.02;;
77109;SDS011;66062;52.464;16.922;2023-03-01T12:57:40;11.20;;;5.13;;
77109;SDS011;66062;52.464;16.922;2023-03-01T13:03:18;9.07;;;4.97;;
77109;SDS011;66062;52.464;16.922;2023-03-01T13:06:07;11.48;;;5.40;;
77109;SDS011;66062;52.464;16.922;2023-03-01T13:08:43;11.10;;;5.40;;
77109;SDS011;66062;52.464;16.922;2023-03-01T13:11:14;9.85;;;5.47;;
77109;SDS011;66062;52.464;16.922;2023-03-01T13:13:44;12.63;;;6.00;;
77109;SDS011;66062;52.464;16.922;2023-03-01T13:19:12;10.82;;;5.00;;
77109;SDS011;66062;52.464;16.922;2023-03-01T13:21:41;10.15;;;4.90;;
77109;SDS011;66062;52.464;16.922;2023-03-01T13:24:27;10.07;;;5.63;;
77109;SDS011;66062;52.464;16.922;2023-03-01T13:29:30;13.52;;;6.43;;
77109;SDS011;66062;52.464;16.922;2023-03-01T13:32:16;11.60;;;5.40;;
77109;SDS011;66062;52.464;16.922;2023-03-01T13:34:46;11.65;;;5.38;;
77109;SDS011;66062;52.464;16.922;2023-03-01T13:37:19;10.10;;;5.20;;
77109;SDS011;66062;52.464;16.922;2023-03-01T13:39:47;9.50;;;6.35;;
77109;SDS011;66062;52.464;16.922;2023-03-01T13:42:35;9.93;;;5.28;;
77109;SDS011;66062;52.464;16.922;2023-03-01T13:44:58;10.68;;;5.22;;
77109;SDS011;66062;52.464;16.922;2023-03-01T13:47:25;10.57;;;5.15;;
77109;SDS011;66062;52.464;16.922;2023-03-01T13:49:56;11.20;;;5.95;;
77109;SDS011;66062;52.464;16.922;2023-03-01T13:52:39;12.15;;;6.45;;
77109;SDS011;66062;52.464;16.922;2023-03-01T13:55:14;9.40;;;4.50;;
77109;SDS011;66062;52.464;16.922;2023-03-01T13:57:45;10.25;;;4.40;;
77109;SDS011;66062;52.464;16.922;2023-03-01T14:05:42;10.00;;;5.43;;
77109;SDS011;66062;52.464;16.922;2023-03-01T14:08:22;10.65;;;5.07;;
77109;SDS011;66062;52.464;16.922;2023-03-01T14:10:54;8.32;;;4.28;;
77109;SDS011;66062;52.464;16.922;2023-03-01T14:19:16;11.15;;;4.70;;
77109;SDS011;66062;52.464;16.922;2023-03-01T14:21:45;10.40;;;5.43;;
77109;SDS011;66062;52.464;16.922;2023-03-01T14:24:20;10.15;;;4.80;;
77109;SDS011;66062;52.464;16.922;2023-03-01T14:26:48;9.55;;;4.53;;
77109;SDS011;66062;52.464;16.922;2023-03-01T14:29:25;9.65;;;4.95;;
77109;SDS011;66062;52.464;16.922;2023-03-01T14:34:35;11.93;;;6.00;;
77109;SDS011;66062;52.464;16.922;2023-03-01T14:37:11;9.90;;;4.53;;
77109;SDS011;66062;52.464;16.922;2023-03-01T14:39:43;11.05;;;5.32;;
77109;SDS011;66062;52.464;16.922;2023-03-01T14:42:09;13.93;;;5.78;;
77109;SDS011;66062;52.464;16.922;2023-03-01T14:44:34;10.23;;;5.70;;
77109;SDS011;66062;52.464;16.922;2023-03-01T14:47:02;9.68;;;4.60;;
77109;SDS011;66062;52.464;16.922;2023-03-01T14:49:29;9.80;;;4.88;;
77109;SDS011;66062;52.464;16.922;2023-03-01T14:52:04;12.32;;;4.45;;
77109;SDS011;66062;52.464;16.922;2023-03-01T14:54:46;11.35;;;6.03;;
77109;SDS011;66062;52.464;16.922;2023-03-01T14:57:19;9.27;;;5.15;;
77109;SDS011;66062;52.464;16.922;2023-03-01T14:59:47;14.18;;;6.72;;
77109;SDS011;66062;52.464;16.922;2023-03-01T15:02:16;12.23;;;5.07;;
77109;SDS011;66062;52.464;16.922;2023-03-01T15:04:48;11.48;;;5.30;;
77109;SDS011;66062;52.464;16.922;2023-03-01T15:07:17;11.80;;;5.18;;
77109;SDS011;66062;52.464;16.922;2023-03-01T15:09:44;9.13;;;4.45;;
77109;SDS011;66062;52.464;16.922;2023-03-01T15:15:01;15.05;;;4.95;;
77109;SDS011;66062;52.464;16.922;2023-03-01T15:19:58;10.38;;;4.45;;
77109;SDS011;66062;52.464;16.922;2023-03-01T15:22:25;11.43;;;4.88;;
77109;SDS011;66062;52.464;16.922;2023-03-01T15:24:52;11.93;;;4.90;;
77109;SDS011;66062;52.464;16.922;2023-03-01T15:27:19;13.60;;;5.10;;
77109;SDS011;66062;52.464;16.922;2023-03-01T15:30:04;10.30;;;4.90;;
77109;SDS011;66062;52.464;16.922;2023-03-01T15:32:31;12.57;;;4.78;;
77109;SDS011;66062;52.464;16.922;2023-03-01T15:38:30;17.13;;;6.50;;
77109;SDS011;66062;52.464;16.922;2023-03-01T15:43:39;9.98;;;4.43;;
77109;SDS011;66062;52.464;16.922;2023-03-01T15:46:26;11.52;;;4.80;;
77109;SDS011;66062;52.464;16.922;2023-03-01T15:48:57;16.90;;;5.78;;
77109;SDS011;66062;52.464;16.922;2023-03-01T15:51:42;13.52;;;5.63;;
77109;SDS011;66062;52.464;16.922;2023-03-01T15:54:21;14.55;;;4.95;;
77109;SDS011;66062;52.464;16.922;2023-03-01T15:56:48;10.85;;;4.95;;
77109;SDS011;66062;52.464;16.922;2023-03-01T15:59:17;14.98;;;6.22;;
77109;SDS011;66062;52.464;16.922;2023-03-01T16:01:43;14.05;;;5.35;;
77109;SDS011;66062;52.464;16.922;2023-03-01T16:04:10;15.07;;;5.97;;
77109;SDS011;66062;52.464;16.922;2023-03-01T16:06:41;12.27;;;5.47;;
77109;SDS011;66062;52.464;16.922;2023-03-01T16:09:06;13.27;;;5.40;;
77109;SDS011;66062;52.464;16.922;2023-03-01T16:11:32;15.13;;;5.95;;
77109;SDS011;66062;52.464;16.922;2023-03-01T16:13:59;13.63;;;5.88;;
77109;SDS011;66062;52.464;16.922;2023-03-01T16:16:24;18.70;;;6.97;;
77109;SDS011;66062;52.464;16.922;2023-03-01T16:18:50;30.63;;;14.20;;
77109;SDS011;66062;52.464;16.922;2023-03-01T16:21:20;30.10;;;14.43;;
77109;SDS011;66062;52.464;16.922;2023-03-01T16:23:47;19.65;;;8.65;;
77109;SDS011;66062;52.464;16.922;2023-03-01T16:26:13;11.73;;;6.18;;
77109;SDS011;66062;52.464;16.922;2023-03-01T16:28:40;11.82;;;5.47;;
77109;SDS011;66062;52.464;16.922;2023-03-01T16:31:06;15.77;;;5.85;;
77109;SDS011;66062;52.464;16.922;2023-03-01T16:33:32;13.23;;;6.35;;
77109;SDS011;66062;52.464;16.922;2023-03-01T16:35:59;17.67;;;7.15;;
77109;SDS011;66062;52.464;16.922;2023-03-01T16:38:37;16.52;;;6.78;;
77109;SDS011;66062;52.464;16.922;2023-03-01T16:41:04;13.23;;;6.20;;
77109;SDS011;66062;52.464;16.922;2023-03-01T16:43:30;19.23;;;7.72;;